Time;durP1;ratioP1;P1;durP2;ratioP2;P2;SDS_P1;SDS_P2;PMS_P1;PMS_P2;Temp;Humidity;BMP_temperature;BMP_pressure;BME280_temperature;BME280_humidity;BME280_pressure;Samples;Min_cycle;Max_cycle;Signal;HPM_P1;HPM_P2
2022/07/19 00:01:33;;;;;;;4.83;2.60;;;;;;;21.13;62.70;99917.53;4970437;28;20227;-86
2022/07/19 00:03:58;;;;;;;4.30;2.40;;;;;;;19.77;62.79;99717.94;4955875;28;20624;-84
2022/07/19 00:06:24;;;;;;;2.70;2.27;;;;;;;18.43;63.32;99480.00;4955898;29;20196;-86
2022/07/19 00:08:49;;;;;;;2.97;2.30;;;;;;;19.92;63.74;99750.63;4955792;28;20251;-85
2022/07/19 00:11:15;;;;;;;2.90;2.20;;;;;;;20.28;63.36;99810.22;4955827;29;20591;-85
2022/07/19 00:13:40;;;;;;;6.87;2.50;;;;;;;18.57;62.31;99511.84;4955913;28;20215;-85
2022/07/19 00:16:06;;;;;;;5.03;2.40;;;;;;;18.36;62.61;99494.44;4955677;29;20165;-85
2022/07/19 00:18:31;;;;;;;5.20;2.40;;;;;;;20.19;62.72;99822.09;4955247;29;20164;-85
2022/07/19 00:20:56;;;;;;;3.73;2.20;;;;;;;19.51;62.74;99714.16;4955862;29;20351;-86
2022/07/19 00:23:22;;;;;;;2.60;2.20;;;;;;;18.58;62.63;99562.28;4956408;29;20254;-85
2022/07/19 00:25:47;;;;;;;3.13;2.10;;;;;;;18.89;62.50;99625.16;4955965;28;20165;-85
2022/07/19 00:28:13;;;;;;;5.03;2.30;;;;;;;20.41;62.76;99909.81;4954975;29;20173;-85
2022/07/19 00:30:38;;;;;;;4.73;2.20;;;;;;;18.38;62.85;99577.34;4955136;29;20528;-85
2022/07/19 00:33:08;;;;;;;3.13;2.20;;;;;;;19.77;62.29;99794.13;4955604;29;20172;-85
2022/07/19 00:35:34;;;;;;;2.97;2.00;;;;;;;20.42;62.61;99911.56;4955267;29;20255;-85
2022/07/19 00:38:11;;;;;;;6.33;2.37;;;;;;;19.89;62.74;99836.25;4959183;28;20272;-85
2022/07/19 00:40:38;;;;;;;3.47;2.23;;;;;;;20.48;63.41;99947.66;4959347;29;20178;-85
2022/07/19 00:43:04;;;;;;;3.93;2.10;;;;;;;18.75;63.04;99648.91;4955855;28;20652;-86
2022/07/19 00:45:29;;;;;;;2.77;2.00;;;;;;;19.66;63.62;99845.38;4954121;28;20180;-86
2022/07/19 00:47:55;;;;;;;6.20;2.50;;;;;;;18.10;63.46;99549.56;4955706;28;20171;-86
2022/07/19 00:50:22;;;;;;;4.07;2.40;;;;;;;19.32;63.94;99805.44;4955280;29;20165;-87
2022/07/19 00:52:51;;;;;;;3.67;2.20;;;;;;;18.47;64.12;99668.91;4955731;28;20176;-84
2022/07/19 00:55:21;;;;;;;7.57;2.50;;;;;;;17.42;63.73;99474.97;4955391;29;20204;-83
2022/07/19 00:57:47;;;;;;;3.23;2.30;;;;;;;20.04;64.24;99902.44;4955456;28;20268;-84
2022/07/19 01:00:15;;;;;;;4.80;2.10;;;;;;;18.99;64.41;99748.47;4955260;29;20183;-85
2022/07/19 01:02:41;;;;;;;5.30;2.40;;;;;;;18.76;64.45;99708.78;4955102;28;20578;-85
2022/07/19 01:05:08;;;;;;;4.70;2.30;;;;;;;18.00;64.23;99586.97;4954956;28;20263;-86
2022/07/19 01:07:39;;;;;;;4.33;2.10;;;;;;;17.56;63.65;99500.84;4954952;29;20219;-85
2022/07/19 01:10:07;;;;;;;2.47;2.10;;;;;;;20.09;63.78;99926.50;4954878;29;20165;-86
2022/07/19 01:12:33;;;;;;;2.93;2.33;;;;;;;20.02;64.73;99920.41;4955275;28;20547;-86
2022/07/19 01:15:00;;;;;;;5.10;2.30;;;;;;;20.10;64.10;99917.09;4954687;29;20169;-86
2022/07/19 01:17:26;;;;;;;5.20;2.30;;;;;;;18.71;64.77;99674.47;4954341;29;20160;-84
2022/07/19 01:19:52;;;;;;;2.40;2.20;;;;;;;18.04;64.61;99575.09;4954483;29;20625;-85
2022/07/19 01:22:17;;;;;;;4.13;2.37;;;;;;;19.61;64.44;99836.75;4954698;29;20564;-86
2022/07/19 01:24:43;;;;;;;2.80;2.10;;;;;;;20.11;64.35;99909.38;4953267;29;20607;-86
2022/07/19 01:27:09;;;;;;;3.63;2.10;;;;;;;19.55;64.36;99789.53;4954208;29;20251;-86
2022/07/19 01:29:38;;;;;;;6.17;2.30;;;;;;;18.04;63.87;99545.22;4954689;29;20219;-86
2022/07/19 01:32:05;;;;;;;6.10;2.57;;;;;;;20.19;64.24;99902.63;4955424;29;20168;-86
2022/07/19 01:34:30;;;;;;;4.27;2.30;;;;;;;16.81;64.80;99350.22;4953594;28;20637;-86
2022/07/19 01:36:56;;;;;;;3.20;2.10;;;;;;;19.61;64.68;99813.63;4955683;28;20195;-86
2022/07/19 01:39:22;;;;;;;2.83;2.27;;;;;;;19.41;64.42;99786.78;4954784;29;20174;-86
2022/07/19 01:41:47;;;;;;;5.40;3.03;;;;;;;17.32;64.25;99436.41;4955001;28;20613;-86
2022/07/19 01:44:13;;;;;;;3.30;2.10;;;;;;;17.40;64.75;99468.97;4954798;29;20189;-86
2022/07/19 01:46:38;;;;;;;4.70;2.20;;;;;;;18.79;64.26;99676.31;4954363;28;20618;-87
2022/07/19 01:49:03;;;;;;;4.40;2.20;;;;;;;19.47;64.40;99791.16;4954410;29;20168;-86
2022/07/19 01:51:29;;;;;;;4.63;2.50;;;;;;;19.51;64.62;99811.75;4954918;28;20161;-86
2022/07/19 01:53:54;;;;;;;4.80;2.30;;;;;;;16.78;64.37;99352.75;4954038;28;20156;-86
2022/07/19 01:56:20;;;;;;;4.27;2.27;;;;;;;18.30;64.55;99622.50;4953864;28;20165;-85
2022/07/19 01:58:45;;;;;;;5.87;2.73;;;;;;;18.62;66.28;99741.03;4953672;28;20165;-86
2022/07/19 02:01:11;;;;;;;9.00;3.73;;;;;;;16.84;67.80;99467.03;4953814;29;20521;-85
2022/07/19 02:03:36;;;;;;;9.27;4.30;;;;;;;19.09;68.71;99852.16;4953638;28;20228;-85
2022/07/19 02:06:02;;;;;;;7.43;4.53;;;;;;;19.30;71.48;99914.09;4954145;29;20172;-85
2022/07/19 02:08:27;;;;;;;11.70;4.30;;;;;;;18.53;72.96;99797.28;4953801;29;20175;-86
2022/07/19 02:10:53;;;;;;;8.23;4.10;;;;;;;18.51;73.40;99794.69;4953631;28;20165;-85
2022/07/19 02:13:18;;;;;;;7.43;4.47;;;;;;;18.93;77.45;99917.72;4953576;29;20163;-86
2022/07/19 02:15:44;;;;;;;7.27;4.90;;;;;;;16.31;84.02;99558.75;4953275;28;20626;-85
2022/07/19 02:18:09;;;;;;;7.30;4.67;;;;;;;16.89;83.06;99637.63;4953745;29;20660;-84
2022/07/19 02:20:34;;;;;;;9.43;5.63;;;;;;;18.26;81.57;99848.84;4953969;28;20209;-85
2022/07/19 02:23:00;;;;;;;8.57;5.00;;;;;;;16.86;81.94;99622.25;4954199;28;20164;-86
2022/07/19 02:25:25;;;;;;;7.47;5.20;;;;;;;18.03;81.13;99819.31;4954184;29;20169;-86
2022/07/19 02:27:52;;;;;;;8.40;5.20;;;;;;;16.81;81.02;99625.53;4952791;29;20641;-85
2022/07/19 02:30:17;;;;;;;8.80;5.50;;;;;;;18.60;81.65;99919.63;4953787;29;20222;-85
2022/07/19 02:32:43;;;;;;;11.03;4.83;;;;;;;17.21;80.29;99661.38;4953883;29;20626;-85
2022/07/19 02:35:10;;;;;;;10.13;4.73;;;;;;;18.81;80.39;99922.63;4953840;29;20180;-84
2022/07/19 02:37:37;;;;;;;7.97;4.53;;;;;;;17.43;81.10;99699.38;4953699;28;20160;-86
2022/07/19 02:40:03;;;;;;;6.33;4.50;;;;;;;18.23;78.70;99818.03;4954411;29;20165;-86
2022/07/19 02:42:29;;;;;;;7.67;4.30;;;;;;;18.17;79.15;99808.53;4954245;29;20267;-86
2022/07/19 02:44:54;;;;;;;7.57;3.97;;;;;;;16.87;77.67;99552.34;4953433;29;20323;-84
2022/07/19 02:47:20;;;;;;;10.70;4.70;;;;;;;17.60;78.45;99694.66;4953312;29;20176;-86
2022/07/19 02:49:45;;;;;;;10.67;4.60;;;;;;;18.19;79.14;99804.28;4953096;28;20169;-87
2022/07/19 02:52:10;;;;;;;8.97;4.90;;;;;;;18.10;81.18;99790.44;4954018;29;20186;-86
2022/07/19 02:54:36;;;;;;;18.27;4.80;;;;;;;16.76;80.78;99558.94;4954159;28;20244;-87
2022/07/19 02:57:01;;;;;;;9.73;5.00;;;;;;;17.96;83.61;99791.84;4953733;29;20168;-84
2022/07/19 02:59:27;;;;;;;6.80;4.63;;;;;;;16.98;83.55;99634.41;4953597;29;20173;-86
2022/07/19 03:01:52;;;;;;;12.03;4.67;;;;;;;16.29;82.93;99521.19;4953220;29;20223;-86
2022/07/19 03:04:18;;;;;;;9.33;4.43;;;;;;;17.09;84.04;99655.97;4953286;29;20686;-84
2022/07/19 03:06:43;;;;;;;9.27;4.60;;;;;;;16.17;82.49;99467.28;4953468;28;20207;-86
2022/07/19 03:09:08;;;;;;;10.37;4.60;;;;;;;16.88;82.50;99587.34;4956499;29;20252;-85
2022/07/19 03:11:34;;;;;;;6.50;4.50;;;;;;;18.53;85.92;99928.91;4972010;28;20674;-87
2022/07/19 03:13:59;;;;;;;7.17;4.47;;;;;;;15.55;95.55;99461.56;4956656;29;20215;-87
2022/07/19 03:16:25;;;;;;;7.20;4.50;;;;;;;15.25;96.19;99427.59;4956494;29;20223;-85
2022/07/19 03:18:50;;;;;;;7.87;4.53;;;;;;;17.29;97.01;99790.34;4955429;29;20181;-86
2022/07/19 03:21:15;;;;;;;8.10;4.43;;;;;;;17.09;94.14;99719.94;4957219;28;20252;-86
2022/07/19 03:23:41;;;;;;;7.13;4.17;;;;;;;17.89;94.83;99877.06;4956899;28;20196;-86
2022/07/19 03:26:07;;;;;;;8.23;4.17;;;;;;;15.41;91.62;99416.94;4956464;29;20169;-85
2022/07/19 03:28:34;;;;;;;7.03;4.53;;;;;;;16.21;88.78;99545.69;4971647;28;20176;-85
2022/07/19 03:31:00;;;;;;;7.63;4.47;;;;;;;18.61;90.99;99931.63;4956305;28;20165;-85
2022/07/19 03:33:25;;;;;;;7.93;4.27;;;;;;;17.95;88.89;99806.34;4955769;28;20267;-85
2022/07/19 03:35:51;;;;;;;7.50;3.90;;;;;;;16.82;85.43;99604.22;4956999;29;20165;-85
2022/07/19 03:38:16;;;;;;;5.10;3.80;;;;;;;16.12;85.23;99494.44;4957226;29;20645;-85
2022/07/19 03:40:43;;;;;;;7.93;4.60;;;;;;;16.79;84.64;99570.91;4971970;28;20173;-85
2022/07/19 03:43:09;;;;;;;6.47;4.47;;;;;;;17.51;84.55;99691.84;4972326;28;20567;-86
2022/07/19 03:45:34;;;;;;;6.00;4.20;;;;;;;17.06;84.23;99592.81;4958358;28;20161;-85
2022/07/19 03:48:00;;;;;;;9.20;4.43;;;;;;;18.28;83.95;99794.22;4958077;29;20685;-85
2022/07/19 03:50:26;;;;;;;8.23;4.50;;;;;;;18.18;85.68;99797.41;4956395;28;20183;-86
2022/07/19 03:52:51;;;;;;;7.97;4.47;;;;;;;18.24;85.80;99783.84;4972982;28;20185;-86
2022/07/19 03:55:16;;;;;;;12.93;5.60;;;;;;;18.55;84.99;99865.69;4958261;29;20211;-84
2022/07/19 03:57:42;;;;;;;12.03;5.13;;;;;;;17.61;87.77;99719.41;4958156;29;20176;-84
2022/07/19 04:00:08;;;;;;;13.33;5.30;;;;;;;18.81;88.66;99949.16;4963461;28;20187;-86
2022/07/19 04:02:33;;;;;;;8.60;5.23;;;;;;;14.94;91.19;99349.47;4975624;28;20238;-85
2022/07/19 04:04:59;;;;;;;19.53;5.93;;;;;;;17.50;91.86;99743.88;4975440;28;20211;-85
2022/07/19 04:07:24;;;;;;;11.43;5.70;;;;;;;16.35;93.25;99587.78;4976918;28;20160;-84
2022/07/19 04:09:49;;;;;;;11.20;5.53;;;;;;;16.16;100.00;99623.91;4978786;28;20160;-86
2022/07/19 04:12:15;;;;;;;10.43;5.93;;;;;;;15.90;99.40;99544.13;4994869;28;20247;-88
2022/07/19 04:14:40;;;;;;;17.63;6.37;;;;;;;14.80;100.00;99383.06;4993143;28;20707;-88
2022/07/19 04:17:07;;;;;;;14.77;6.20;;;;;;;15.30;100.00;99485.56;4978593;28;20168;-88
2022/07/19 04:19:33;;;;;;;11.43;6.10;;;;;;;16.34;100.00;99678.88;4977042;28;20221;-89
2022/07/19 04:21:58;;;;;;;10.50;5.70;;;;;;;15.65;100.00;99568.16;4979368;28;20239;-88
2022/07/19 04:24:24;;;;;;;12.90;5.87;;;;;;;13.40;100.00;99175.50;4981412;28;20283;-85
2022/07/19 04:26:49;;;;;;;10.70;5.87;;;;;;;16.45;100.00;99669.81;5010689;28;20171;-87
2022/07/19 04:29:15;;;;;;;7.10;5.80;;;;;;;15.60;100.00;99536.53;4993964;28;20186;-89
2022/07/19 04:31:40;;;;;;;11.60;5.87;;;;;;;14.26;100.00;99248.28;4983211;28;20224;-88
2022/07/19 04:34:06;;;;;;;10.30;5.97;;;;;;;18.02;100.00;99877.38;4982195;28;20180;-88
2022/07/19 04:36:31;;;;;;;9.67;6.30;;;;;;;16.43;100.00;99622.91;4979032;28;20192;-88
2022/07/19 04:38:57;;;;;;;10.07;5.23;;;;;;;15.93;100.00;99550.16;4978414;28;20192;-88
2022/07/19 04:41:22;;;;;;;11.90;5.40;;;;;;;13.47;100.00;99161.25;4977952;28;20175;-88
2022/07/19 04:43:48;;;;;;;9.60;5.73;;;;;;;16.91;100.00;99717.84;4978336;28;20642;-87
2022/07/19 04:46:13;;;;;;;9.63;5.60;;;;;;;14.96;100.00;99308.72;4975606;28;20164;-88
2022/07/19 04:48:40;;;;;;;12.17;5.70;;;;;;;15.93;100.00;99499.09;4975772;28;20175;-88
2022/07/19 04:51:06;;;;;;;9.83;5.63;;;;;;;18.74;100.00;99955.00;4977347;28;20165;-87
2022/07/19 04:53:32;;;;;;;8.30;5.10;;;;;;;18.14;100.00;99872.53;4977179;28;20181;-89
2022/07/19 04:55:57;;;;;;;8.93;5.67;;;;;;;18.10;100.00;99869.88;4975929;28;20164;-87
2022/07/19 04:58:22;;;;;;;11.67;6.40;;;;;;;17.46;100.00;99711.38;4974842;28;20192;-87
2022/07/19 05:00:48;;;;;;;10.57;5.67;;;;;;;18.09;99.51;99806.63;4976838;28;20239;-87
2022/07/19 05:03:13;;;;;;;9.77;5.30;;;;;;;15.33;96.20;99303.66;4976076;28;20662;-87
2022/07/19 05:05:39;;;;;;;10.53;5.80;;;;;;;17.91;94.02;99732.00;4991686;28;20235;-87
2022/07/19 05:08:04;;;;;;;8.97;4.80;;;;;;;19.65;89.66;99960.94;4977124;28;20244;-87
2022/07/19 05:10:30;;;;;;;8.10;5.43;;;;;;;16.83;90.75;99496.88;4975899;28;20621;-86
2022/07/19 05:12:55;;;;;;;9.77;5.60;;;;;;;18.14;88.16;99662.38;4969409;28;20227;-87
2022/07/19 05:15:21;;;;;;;8.67;5.20;;;;;;;19.02;84.66;99771.59;4965974;28;20199;-89
2022/07/19 05:17:46;;;;;;;10.03;5.00;;;;;;;20.02;80.52;99883.56;4973035;28;20684;-88
2022/07/19 05:20:13;;;;;;;10.97;4.70;;;;;;;18.90;80.40;99704.69;4968713;28;20196;-88
2022/07/19 05:22:39;;;;;;;9.33;5.10;;;;;;;19.09;77.92;99709.25;4952872;29;20211;-88
2022/07/19 05:25:05;;;;;;;8.60;4.67;;;;;;;19.98;79.67;99908.38;4956293;28;20771;-87
2022/07/19 05:27:30;;;;;;;8.07;4.87;;;;;;;19.88;76.37;99824.28;4953496;29;20188;-88
2022/07/19 05:29:55;;;;;;;7.80;5.10;;;;;;;20.43;76.92;99927.84;4969218;28;21062;-87
2022/07/19 05:32:21;;;;;;;7.53;4.43;;;;;;;20.58;75.09;99938.31;4965843;28;20199;-87
2022/07/19 05:34:46;;;;;;;9.17;4.50;;;;;;;18.04;73.04;99487.97;4954210;29;20265;-88
2022/07/19 05:37:12;;;;;;;9.40;4.20;;;;;;;18.45;73.73;99575.75;4953790;28;20188;-87
2022/07/19 05:39:37;;;;;;;7.80;4.00;;;;;;;20.95;70.97;99953.34;4971269;28;20184;-87
2022/07/19 05:42:03;;;;;;;6.47;3.80;;;;;;;20.05;69.89;99791.06;4973957;28;20188;-89
2022/07/19 05:44:28;;;;;;;6.37;3.93;;;;;;;20.16;70.86;99807.47;4972499;28;20207;-88
2022/07/19 05:46:54;;;;;;;5.13;3.80;;;;;;;21.21;68.34;99948.47;4967221;28;20188;-88
2022/07/19 05:49:19;;;;;;;5.70;4.23;;;;;;;20.38;66.06;99731.47;4953707;28;20262;-88
2022/07/19 05:51:45;;;;;;;5.47;3.50;;;;;;;21.49;63.08;99911.81;4955297;28;20263;-89
2022/07/19 05:54:10;;;;;;;6.00;3.23;;;;;;;21.49;60.04;99870.59;4960484;28;20242;-86
2022/07/19 05:56:36;;;;;;;4.17;3.20;;;;;;;20.59;61.66;99765.97;4970346;28;20247;-87
2022/07/19 05:59:01;;;;;;;8.47;3.70;;;;;;;20.35;62.03;99657.72;4974149;28;20190;-87
2022/07/19 06:01:27;;;;;;;5.97;3.30;;;;;;;22.53;60.09;99955.50;4985609;28;20195;-86
2022/07/19 06:03:55;;;;;;;7.17;3.37;;;;;;;22.23;60.35;99942.44;4971841;28;20243;-89
2022/07/19 06:06:22;;;;;;;4.40;3.20;;;;;;;22.21;60.65;99957.91;4973336;28;20657;-89
2022/07/19 06:08:48;;;;;;;4.30;3.47;;;;;;;21.76;61.07;99936.94;4982163;28;20657;-88
2022/07/19 06:11:16;;;;;;;5.33;3.00;;;;;;;21.94;61.26;99954.28;4952526;29;20181;-87
2022/07/19 06:13:47;;;;;;;4.87;3.17;;;;;;;21.30;60.42;99822.38;4942688;28;20244;-85
2022/07/19 06:16:13;;;;;;;5.60;3.17;;;;;;;19.57;60.10;99572.09;4973061;28;20208;-89
2022/07/19 06:18:39;;;;;;;5.13;3.10;;;;;;;18.44;60.42;99366.34;4952972;28;20193;-85
2022/07/19 06:21:08;;;;;;;3.70;3.00;;;;;;;18.05;60.37;99316.34;4987387;28;20199;-87
2022/07/19 06:23:34;;;;;;;4.20;2.90;;;;;;;22.58;58.47;99971.00;4987241;28;20231;-86
2022/07/19 06:26:06;;;;;;;4.47;2.80;;;;;;;19.38;57.09;99358.81;4974771;28;20183;-87
2022/07/19 06:28:34;;;;;;;6.30;3.07;;;;;;;19.03;58.45;99342.22;4971924;28;20291;-87
2022/07/19 06:31:00;;;;;;;7.97;3.43;;;;;;;21.25;56.00;99576.81;4971362;28;20192;-89
2022/07/19 06:33:37;;;;;;;5.33;3.20;;;;;;;20.43;54.31;99450.31;4971347;28;20188;-88
2022/07/19 06:36:03;;;;;;;6.33;3.47;;;;;;;21.13;54.80;99544.16;4971829;28;20914;-88
2022/07/19 06:38:29;;;;;;;5.60;3.23;;;;;;;23.66;54.41;99959.25;4970691;28;20260;-89
2022/07/19 06:41:00;;;;;;;5.17;3.30;;;;;;;21.09;52.79;99433.44;4976632;28;20661;-91
2022/07/19 06:43:29;;;;;;;6.63;4.23;;;;;;;20.50;53.16;99344.03;4974516;28;20194;-89
2022/07/19 06:45:55;;;;;;;4.90;3.50;;;;;;;21.64;52.09;99524.53;4991378;28;20215;-87
2022/07/19 06:48:21;;;;;;;8.07;3.47;;;;;;;21.48;52.10;99504.75;4975391;28;20184;-88
2022/07/19 06:50:49;;;;;;;7.77;3.57;;;;;;;24.71;50.72;99934.88;4975130;28;20191;-88
2022/07/19 06:53:14;;;;;;;4.87;3.50;;;;;;;24.87;49.47;99944.31;4976168;28;20192;-86
2022/07/19 06:55:40;;;;;;;7.13;3.20;;;;;;;21.73;49.08;99399.09;4990004;28;20196;-88
2022/07/19 06:58:05;;;;;;;6.30;3.63;;;;;;;22.02;48.95;99435.19;4974848;28;20195;-89
2022/07/19 07:00:31;;;;;;;4.43;3.10;;;;;;;22.97;50.01;99688.81;4975068;28;20787;-88
2022/07/19 07:02:57;;;;;;;4.73;3.30;;;;;;;24.21;50.28;99890.22;4972550;28;20232;-87
2022/07/19 07:05:32;;;;;;;3.50;3.20;;;;;;;22.02;51.24;99561.53;4973189;28;20214;-89
2022/07/19 07:07:58;;;;;;;5.17;3.23;;;;;;;21.31;50.33;99359.63;4976398;28;20198;-87
2022/07/19 07:10:23;;;;;;;5.73;3.47;;;;;;;23.11;48.98;99563.94;4957961;28;20189;-86
2022/07/19 07:12:49;;;;;;;7.10;3.70;;;;;;;22.90;48.22;99510.66;4943220;28;20676;-87
2022/07/19 07:15:15;;;;;;;4.37;3.30;;;;;;;23.09;48.76;99542.44;4955143;28;20271;-88
2022/07/19 07:17:41;;;;;;;6.07;3.50;;;;;;;23.49;47.76;99561.19;4955017;28;20220;-88
2022/07/19 07:20:07;;;;;;;4.47;3.40;;;;;;;22.70;46.68;99354.13;4956256;28;20192;-87
2022/07/19 07:22:34;;;;;;;5.70;3.67;;;;;;;22.68;46.12;99353.28;4955760;28;20228;-89
2022/07/19 07:25:00;;;;;;;6.50;3.47;;;;;;;26.21;45.75;99924.25;4970131;28;20302;-88
2022/07/19 07:27:25;;;;;;;4.03;3.37;;;;;;;24.54;45.47;99597.50;4958180;28;20701;-88
2022/07/19 07:29:51;;;;;;;7.70;3.47;;;;;;;26.27;44.98;99876.59;4969641;28;20180;-89
2022/07/19 07:32:16;;;;;;;6.80;3.63;;;;;;;23.75;44.81;99452.44;4972596;28;20191;-86
2022/07/19 07:34:44;;;;;;;7.57;3.57;;;;;;;23.52;44.92;99388.00;4973517;28;20238;-88
2022/07/19 07:37:10;;;;;;;5.67;3.43;;;;;;;26.84;44.26;99913.97;4959128;28;20191;-89
2022/07/19 07:39:36;;;;;;;5.80;3.60;;;;;;;26.32;44.20;99802.97;4954426;29;20896;-88
2022/07/19 07:42:03;;;;;;;5.27;3.60;;;;;;;25.43;44.80;99728.78;4954979;28;20180;-86
2022/07/19 07:44:29;;;;;;;4.23;3.27;;;;;;;26.06;44.93;99916.63;4955097;29;20204;-89
2022/07/19 07:46:54;;;;;;;5.50;3.10;;;;;;;26.23;43.13;99836.81;4953928;28;20328;-87
2022/07/19 07:49:20;;;;;;;4.27;3.20;;;;;;;25.46;44.33;99788.38;4954445;29;20189;-88
2022/07/19 07:51:46;;;;;;;3.50;2.90;;;;;;;24.62;42.74;99543.91;4967639;29;20185;-90
2022/07/19 07:54:12;;;;;;;3.23;2.77;;;;;;;26.95;41.60;99912.94;4973212;28;20248;-87
2022/07/19 07:56:37;;;;;;;7.07;3.60;;;;;;;26.51;41.53;99750.78;4953289;28;20643;-88
2022/07/19 07:59:03;;;;;;;4.00;3.45;;;;;;;27.61;40.83;99917.16;4953207;28;20176;-90
2022/07/19 08:01:29;;;;;;;6.70;2.95;;;;;;;24.65;39.05;99388.53;4953681;29;20196;-90
2022/07/19 08:03:55;;;;;;;5.10;3.00;;;;;;;28.34;38.00;99917.53;4951908;28;20296;-88
2022/07/19 08:06:20;;;;;;;4.25;2.72;;;;;;;25.69;37.73;99459.59;4953224;28;20267;-89
2022/07/19 08:08:46;;;;;;;5.30;3.30;;;;;;;27.79;37.31;99803.19;4954427;28;20203;-89
2022/07/19 08:11:11;;;;;;;3.50;2.80;;;;;;;27.70;35.57;99740.03;4968773;28;20269;-86
2022/07/19 08:13:37;;;;;;;3.53;2.50;;;;;;;28.38;33.98;99843.63;4958036;28;20253;-88
2022/07/19 08:16:02;;;;;;;3.35;2.47;;;;;;;27.93;33.98;99847.16;4955117;28;20188;-87
2022/07/19 08:18:28;;;;;;;5.68;2.90;;;;;;;27.13;34.12;99638.84;4954417;29;20195;-87
2022/07/19 08:20:53;;;;;;;8.73;4.10;;;;;;;27.73;35.05;99675.78;4954532;29;20192;-89
2022/07/19 08:23:19;;;;;;;4.25;2.97;;;;;;;27.27;33.27;99505.97;4954358;29;20185;-87
2022/07/19 08:25:45;;;;;;;5.25;2.58;;;;;;;29.22;32.56;99826.97;4954161;28;20564;-87
2022/07/19 08:28:10;;;;;;;5.68;2.50;;;;;;;27.31;32.29;99565.66;4953840;29;20276;-88
2022/07/19 08:30:35;;;;;;;4.45;2.33;;;;;;;26.76;32.26;99520.84;4954725;29;20182;-87
2022/07/19 08:33:01;;;;;;;3.70;2.50;;;;;;;26.07;32.52;99398.44;4954950;28;20182;-86
2022/07/19 08:35:27;;;;;;;8.75;3.20;;;;;;;28.96;31.56;99904.94;4969344;28;20597;-86
2022/07/19 08:37:52;;;;;;;5.50;2.97;;;;;;;28.38;31.05;99801.97;4970819;28;20206;-86
2022/07/19 08:40:18;;;;;;;3.67;2.70;;;;;;;29.25;31.46;99899.94;4974888;28;20201;-87
2022/07/19 08:42:44;;;;;;;3.50;2.58;;;;;;;27.93;31.37;99650.19;4973678;28;20195;-87
2022/07/19 08:45:10;;;;;;;3.95;2.30;;;;;;;29.11;30.62;99753.34;4976716;28;20337;-88
2022/07/19 08:47:40;;;;;;;3.92;2.78;;;;;;;29.07;29.83;99749.06;4959679;28;20246;-87
2022/07/19 08:50:08;;;;;;;6.00;2.60;;;;;;;29.95;30.26;99882.50;4956058;28;20237;-88
2022/07/19 08:52:35;;;;;;;3.55;2.70;;;;;;;29.31;29.43;99745.84;4957239;29;20274;-87
2022/07/19 08:55:01;;;;;;;3.70;2.40;;;;;;;29.85;30.05;99858.41;4955080;28;20211;-88
2022/07/19 09:00:12;;;;;;;8.90;3.17;;;;;;;29.03;30.09;99651.84;4973037;28;20575;-86
2022/07/19 09:02:37;;;;;;;5.60;2.85;;;;;;;27.29;29.76;99442.63;4971839;28;20227;-87
2022/07/19 09:05:10;;;;;;;4.97;2.58;;;;;;;26.30;29.98;99346.94;4971690;28;20644;-85
2022/07/19 09:07:38;;;;;;;3.63;2.40;;;;;;;27.89;29.76;99514.94;4971228;28;20187;-87
2022/07/19 09:10:21;;;;;;;4.95;2.35;;;;;;;30.17;28.61;99839.19;4957334;28;20183;-85
2022/07/19 09:13:10;;;;;;;4.97;2.47;;;;;;;30.66;28.77;99875.22;4952920;29;21070;-86
2022/07/19 09:15:51;;;;;;;6.20;2.42;;;;;;;30.48;28.63;99867.94;4952844;28;20224;-87
2022/07/19 09:18:22;;;;;;;5.68;2.33;;;;;;;28.67;29.78;99635.41;4951545;28;20268;-87
2022/07/19 09:20:53;;;;;;;3.95;2.50;;;;;;;28.88;30.03;99686.13;4952977;29;20207;-88
2022/07/19 09:23:34;;;;;;;4.50;2.50;;;;;;;27.30;29.53;99349.88;4953102;29;20192;-88
2022/07/19 09:26:04;;;;;;;5.00;2.30;;;;;;;28.16;29.30;99443.97;4954252;28;20582;-88
2022/07/19 09:28:33;;;;;;;3.67;2.20;;;;;;;27.49;28.67;99289.59;4972292;28;20193;-87
2022/07/19 09:31:02;;;;;;;5.00;2.65;;;;;;;27.96;28.08;99355.13;4987012;28;20208;-87
2022/07/19 09:33:34;;;;;;;3.83;2.45;;;;;;;27.72;28.82;99363.56;4971839;28;20273;-86
2022/07/19 09:36:12;;;;;;;3.72;2.70;;;;;;;30.55;28.94;99854.63;4971620;28;20197;-87
2022/07/19 09:38:42;;;;;;;2.63;2.40;;;;;;;28.74;29.54;99604.81;4971969;28;20186;-86
2022/07/19 09:41:10;;;;;;;4.80;2.40;;;;;;;30.41;30.00;99851.56;4971990;28;20227;-85
2022/07/19 09:43:53;;;;;;;2.38;2.17;;;;;;;28.10;29.53;99472.81;4971784;28;20614;-88
2022/07/19 09:46:31;;;;;;;5.18;2.10;;;;;;;30.51;29.29;99847.81;4972015;28;20194;-84
2022/07/19 09:49:04;;;;;;;4.03;2.40;;;;;;;30.08;29.34;99848.16;4971929;28;20175;-86
2022/07/19 09:51:33;;;;;;;4.65;2.40;;;;;;;30.07;29.85;99824.69;4973039;28;20240;-85
2022/07/19 09:53:59;;;;;;;3.10;2.42;;;;;;;29.37;29.07;99731.78;4990968;28;20187;-87
2022/07/19 09:56:28;;;;;;;4.28;3.20;;;;;;;29.72;29.20;99693.34;4971826;28;20967;-87
2022/07/19 09:58:54;;;;;;;3.95;2.58;;;;;;;30.86;28.88;99844.94;4986897;28;20690;-87
2022/07/19 10:01:28;;;;;;;5.60;2.58;;;;;;;29.59;28.27;99571.09;4971538;28;20249;-86
2022/07/19 10:03:57;;;;;;;5.57;2.38;;;;;;;30.70;29.29;99848.94;4961481;28;20237;-86
2022/07/19 10:06:25;;;;;;;4.78;2.80;;;;;;;30.66;28.83;99841.22;4952125;28;20194;-87
2022/07/19 10:08:51;;;;;;;2.78;2.40;;;;;;;29.55;29.00;99660.84;4952455;29;20176;-86
2022/07/19 10:11:17;;;;;;;3.75;2.50;;;;;;;30.05;29.28;99771.66;4952478;28;20341;-89
2022/07/19 10:13:43;;;;;;;5.57;2.55;;;;;;;29.05;30.17;99516.19;4944085;28;20230;-86
2022/07/19 10:16:15;;;;;;;3.72;2.60;;;;;;;31.22;28.62;99832.47;4956927;28;20710;-85
2022/07/19 10:18:54;;;;;;;3.53;2.42;;;;;;;29.54;29.54;99659.13;4974282;28;20193;-87
2022/07/19 10:21:20;;;;;;;6.68;2.78;;;;;;;29.64;29.10;99622.25;4975672;28;20187;-87
2022/07/19 10:23:51;;;;;;;4.65;2.30;;;;;;;30.78;28.97;99754.56;4977074;28;20242;-86
2022/07/19 10:26:40;;;;;;;3.60;2.42;;;;;;;31.68;28.28;99825.66;4990045;28;20285;-88
2022/07/19 10:29:15;;;;;;;3.63;2.70;;;;;;;30.86;28.96;99824.03;4975867;28;20660;-87
2022/07/19 10:31:41;;;;;;;3.28;2.40;;;;;;;30.87;29.24;99783.91;4976353;28;20540;-88
2022/07/19 10:34:20;;;;;;;8.18;2.80;;;;;;;31.05;29.27;99823.44;4976134;28;20202;-86
2022/07/19 10:36:48;;;;;;;3.45;2.47;;;;;;;30.47;28.80;99782.59;4973841;28;20209;-85
2022/07/19 10:39:38;;;;;;;3.75;2.50;;;;;;;30.40;29.14;99813.28;4988321;28;20312;-84
2022/07/19 10:42:07;;;;;;;3.50;2.40;;;;;;;29.89;30.25;99806.97;4989855;28;20218;-86
2022/07/19 10:44:35;;;;;;;2.60;2.40;;;;;;;28.83;29.51;99648.03;4975987;28;20206;-88
2022/07/19 10:47:01;;;;;;;4.53;2.60;;;;;;;27.91;30.68;99534.81;4992448;28;20564;-87
2022/07/19 10:49:43;;;;;;;3.83;2.47;;;;;;;30.16;29.63;99798.31;4975971;28;20186;-85
2022/07/19 10:52:27;;;;;;;7.40;2.42;;;;;;;29.63;30.46;99795.44;4984724;28;21085;-85
2022/07/19 10:55:22;;;;;;;5.18;2.60;;;;;;;29.28;30.72;99790.31;4955717;29;20266;-86
2022/07/19 10:57:51;;;;;;;2.95;2.65;;;;;;;28.03;30.43;99583.16;4956704;28;20638;-86
2022/07/19 11:00:25;;;;;;;2.63;2.40;;;;;;;29.29;30.84;99781.56;4961227;28;20219;-85
2022/07/19 11:02:52;;;;;;;2.55;2.28;;;;;;;29.53;30.64;99743.53;4963461;28;20220;-85
2022/07/19 11:05:29;;;;;;;3.35;2.30;;;;;;;30.20;29.93;99785.13;4970371;28;20205;-87
2022/07/19 11:07:56;;;;;;;3.30;2.50;;;;;;;28.73;30.01;99518.88;4975968;28;20187;-87
2022/07/19 11:10:23;;;;;;;4.28;2.60;;;;;;;30.19;30.00;99780.78;4980986;28;20187;-87
2022/07/19 11:12:49;;;;;;;2.72;2.40;;;;;;;28.60;29.99;99485.28;4957066;28;20215;-86
2022/07/19 11:15:15;;;;;;;4.50;2.53;;;;;;;29.66;30.13;99630.91;4963062;28;20246;-87
2022/07/19 11:17:53;;;;;;;5.80;2.50;;;;;;;29.53;28.97;99563.47;4957252;28;20186;-86
2022/07/19 11:20:21;;;;;;;5.55;2.35;;;;;;;29.55;29.09;99586.03;4962879;28;20226;-87
2022/07/19 11:22:48;;;;;;;4.97;2.78;;;;;;;29.67;29.52;99643.03;4966404;28;20194;-86
2022/07/19 11:25:16;;;;;;;6.15;2.40;;;;;;;30.35;29.73;99757.69;4990398;28;20213;-87
2022/07/19 11:27:43;;;;;;;6.55;2.30;;;;;;;30.41;29.37;99765.34;4987753;28;20183;-87
2022/07/19 11:30:10;;;;;;;3.53;2.50;;;;;;;30.24;29.81;99759.75;4956114;28;20258;-88
2022/07/19 11:32:35;;;;;;;6.18;2.72;;;;;;;30.75;29.24;99755.53;4965147;28;20203;-87
2022/07/19 11:35:06;;;;;;;4.65;2.28;;;;;;;30.99;29.40;99753.06;4986923;28;20195;-87